CheckWX is a tool to help pilots better visualize weather data.  It is not intended as a substitute for an official pre-flight weather briefing.

09:58:29 UTC

LICC METAR
Catania-Fontanarossa Airport
Catania, Italy
Current

38 mins ago

LICC 180920Z 23004KT 150V280 CAVOK 23/13 Q1019
Observed
Oct-18 @ 09:20 UTC
Wind
  • 230° at 4 KTS
Visibility
10,000+ meters
Flight Rules
VFR
Cloud Levels
  • Clear skies
Temperature
23°C / 73°F
Dewpoint
13°C / 55°F
Humidity
53%
Altimeter
30.09" Hg
Pressure
1018.92 hPa
Previous

1 hour ago

LICC 180850Z 23006KT CAVOK 22/13 Q1019
Observed
Oct-18 @ 08:50 UTC
Wind
  • 230° at 6 KTS
Visibility
10,000+ meters
Flight Rules
VFR
Cloud Levels
  • Clear skies
Temperature
22°C / 72°F
Dewpoint
13°C / 55°F
Humidity
57%
Altimeter
30.09" Hg
Pressure
1018.92 hPa
Previous

2 hours ago

LICC 180820Z 24006KT CAVOK 21/13 Q1019
Observed
Oct-18 @ 08:20 UTC
Wind
  • 240° at 6 KTS
Visibility
10,000+ meters
Flight Rules
VFR
Cloud Levels
  • Clear skies
Temperature
21°C / 70°F
Dewpoint
13°C / 55°F
Humidity
60%
Altimeter
30.09" Hg
Pressure
1018.92 hPa